Avoca, Arkansas
Current Conditions -  °F | °C
As of 3:57 PM on Monday 22 Dec 2014 (Local Time) from KROG Reporting Station
Light Rain Light Rain  
Wind Chill: 44°   Ceiling: 600
Heat Index: 48°   Visibility: 4mi
Dew Point: 47°   Wind: 9mph
Humidity: 96%   Direction: 230°SW
Pressure: 29.52"   Gusts: NA
Location:  36.4°N, 94.07°W
Report Text: KROG 222157Z 23008KT 4SM -RA BR OVC006 09/08 A2952 RMK AO2 RAE2059B16 CIG 004V010 SLP997 P0000 T00890083
Loading
Personal Weather Stations






























Interactive Weather Map New forecast layout! Learn more

10-Day Weather Forecast

Advertisements
Track Severe Weather on mobile